createdAt,value
2022-11-21T00:00:00.476Z,29.74
2022-11-21T00:02:30.902Z,29.73
2022-11-21T00:05:01.250Z,29.75
2022-11-21T00:07:31.626Z,29.74
2022-11-21T00:10:01.941Z,29.71
2022-11-21T00:12:32.233Z,29.75
2022-11-21T00:15:03.006Z,29.75
2022-11-21T00:17:33.293Z,29.76
2022-11-21T00:20:03.600Z,29.72
2022-11-21T00:22:34.808Z,29.72
2022-11-21T00:25:05.253Z,29.73
2022-11-21T00:27:35.523Z,29.74
2022-11-21T00:30:06.724Z,29.72
2022-11-21T00:32:37.043Z,29.77
2022-11-21T00:35:08.399Z,29.76
2022-11-21T00:37:39.045Z,29.75
2022-11-21T00:40:09.944Z,29.75
2022-11-21T00:42:41.015Z,29.75
2022-11-21T00:45:11.755Z,29.76
2022-11-21T00:47:42.157Z,29.76
2022-11-21T00:50:13.210Z,29.77
2022-11-21T00:52:43.625Z,29.76
2022-11-21T00:55:13.938Z,29.77
2022-11-21T00:57:44.391Z,29.76
2022-11-21T01:00:15.347Z,29.77
2022-11-21T01:02:46.156Z,29.78
2022-11-21T01:05:16.611Z,29.78
2022-11-21T01:07:47.150Z,29.78
2022-11-21T01:10:17.756Z,29.79
2022-11-21T01:12:48.274Z,29.80
2022-11-21T01:15:18.895Z,29.80
2022-11-21T01:17:49.415Z,29.81
2022-11-21T01:20:19.762Z,29.79
2022-11-21T01:22:50.011Z,29.81
2022-11-21T01:25:20.440Z,29.82
2022-11-21T01:27:50.710Z,29.83
2022-11-21T01:30:21.105Z,29.82
2022-11-21T01:32:52.419Z,29.83
2022-11-21T01:35:22.423Z,29.81
2022-11-21T01:37:52.508Z,29.81
2022-11-21T01:40:24.598Z,29.83
2022-11-21T01:43:05.678Z,29.82
2022-11-21T01:45:59.046Z,29.81
2022-11-21T01:49:13.808Z,29.81
2022-11-21T01:52:02.854Z,29.81
2022-11-21T01:55:02.610Z,29.80
2022-11-21T01:57:42.336Z,29.78
2022-11-21T02:00:23.807Z,29.80
2022-11-21T02:02:58.680Z,29.79
2022-11-21T02:05:33.864Z,29.80
2022-11-21T02:08:17.772Z,29.80
2022-11-21T02:10:59.463Z,29.80
2022-11-21T02:13:30.362Z,29.82
2022-11-21T02:16:01.120Z,29.82
2022-11-21T02:18:31.473Z,29.81
2022-11-21T02:21:28.282Z,29.82
2022-11-21T02:24:32.816Z,29.83
2022-11-21T02:27:04.305Z,29.83
2022-11-21T02:29:35.247Z,29.83
2022-11-21T02:32:09.345Z,29.84
2022-11-21T02:34:39.685Z,29.85
2022-11-21T02:37:12.233Z,29.83
2022-11-21T02:39:43.249Z,29.84
2022-11-21T02:42:25.249Z,29.85
2022-11-21T02:45:21.360Z,29.83
2022-11-21T02:48:00.672Z,29.85
2022-11-21T02:50:36.659Z,29.86
2022-11-21T02:53:10.522Z,29.84
2022-11-21T02:55:41.254Z,29.85
2022-11-21T02:58:11.826Z,29.85
2022-11-21T03:00:44.081Z,29.85
2022-11-21T03:03:14.742Z,29.88
2022-11-21T03:05:45.716Z,29.87
2022-11-21T03:08:17.016Z,29.87
2022-11-21T03:10:47.337Z,29.85
2022-11-21T03:13:17.950Z,29.85
2022-11-21T03:15:48.096Z,29.86
2022-11-21T03:18:18.630Z,29.88
2022-11-21T03:20:48.966Z,29.88
2022-11-21T03:23:19.489Z,29.89
2022-11-21T03:25:49.801Z,29.90
2022-11-21T03:28:20.101Z,29.88
2022-11-21T03:30:50.494Z,29.88
2022-11-21T03:33:20.784Z,29.87
2022-11-21T03:35:51.245Z,29.88
2022-11-21T03:38:22.111Z,29.89
2022-11-21T03:40:52.436Z,29.89
2022-11-21T03:43:22.639Z,29.89
2022-11-21T03:45:53.054Z,29.90
2022-11-21T03:48:23.415Z,29.90
2022-11-21T03:50:53.771Z,29.91
2022-11-21T03:53:24.139Z,29.91
2022-11-21T03:55:54.455Z,29.91
2022-11-21T03:58:24.737Z,29.92
2022-11-21T04:00:55.123Z,29.92
2022-11-21T04:03:25.498Z,29.91
2022-11-21T04:05:55.831Z,29.93
2022-11-21T04:08:26.377Z,29.92
2022-11-21T04:10:57.686Z,29.92
2022-11-21T04:13:27.593Z,29.95
2022-11-21T04:15:58.150Z,29.93
2022-11-21T04:18:28.449Z,29.92
2022-11-21T04:21:03.123Z,29.93
2022-11-21T04:23:33.452Z,29.92
2022-11-21T04:26:04.112Z,29.93
2022-11-21T04:28:34.606Z,29.95
2022-11-21T04:31:10.442Z,29.94
2022-11-21T04:33:42.326Z,29.92
2022-11-21T04:36:12.382Z,29.96
2022-11-21T04:38:42.459Z,29.94
2022-11-21T04:41:12.602Z,29.97
2022-11-21T04:43:43.311Z,29.96
2022-11-21T04:46:13.831Z,29.96
2022-11-21T04:48:44.161Z,29.97
2022-11-21T04:51:14.421Z,29.94
2022-11-21T04:53:44.770Z,29.97
2022-11-21T04:56:19.894Z,29.98
2022-11-21T04:58:50.212Z,29.98
2022-11-21T05:01:20.695Z,29.98
2022-11-21T05:03:51.050Z,29.99
2022-11-21T05:06:21.447Z,29.99
2022-11-21T05:08:54.111Z,29.99
2022-11-21T05:11:42.930Z,29.99
2022-11-21T05:14:14.309Z,30.00
2022-11-21T05:16:44.582Z,30.01
2022-11-21T05:19:14.945Z,30.03
2022-11-21T05:21:45.297Z,30.02
2022-11-21T05:24:15.589Z,30.02
2022-11-21T05:26:45.891Z,30.04
2022-11-21T05:29:16.355Z,30.04
2022-11-21T05:31:46.621Z,30.03
2022-11-21T05:34:17.138Z,30.05
2022-11-21T05:36:47.421Z,30.02
2022-11-21T05:39:18.207Z,30.07
2022-11-21T05:41:48.505Z,30.05
2022-11-21T05:44:18.868Z,30.07
2022-11-21T05:46:49.477Z,30.06
2022-11-21T05:49:19.785Z,30.08
2022-11-21T05:51:50.132Z,30.09
2022-11-21T05:54:20.423Z,30.08
2022-11-21T05:56:50.718Z,30.10
2022-11-21T05:59:21.096Z,30.12
2022-11-21T06:02:10.035Z,30.11
2022-11-21T06:04:40.329Z,30.11
2022-11-21T06:07:10.755Z,30.12
2022-11-21T06:09:41.086Z,30.12
2022-11-21T06:12:11.864Z,30.12
2022-11-21T06:14:42.149Z,30.13
2022-11-21T06:17:12.523Z,30.11
2022-11-21T06:19:42.899Z,30.11
2022-11-21T06:22:13.224Z,30.11
2022-11-21T06:24:43.333Z,30.12
2022-11-21T06:27:13.477Z,30.10
2022-11-21T06:29:43.561Z,30.12
2022-11-21T06:32:13.925Z,30.12
2022-11-21T06:34:44.248Z,30.13
2022-11-21T06:37:14.543Z,30.14
2022-11-21T06:39:44.938Z,30.15
2022-11-21T06:42:15.299Z,30.15
2022-11-21T06:44:45.585Z,30.16
2022-11-21T06:47:16.097Z,30.17
2022-11-21T06:49:46.295Z,30.17
2022-11-21T06:52:16.605Z,30.17
2022-11-21T06:54:46.930Z,30.16
2022-11-21T06:57:17.228Z,30.16
2022-11-21T06:59:47.416Z,30.17
2022-11-21T07:02:18.766Z,30.19
2022-11-21T07:04:49.331Z,30.18
2022-11-21T07:07:19.793Z,30.21
2022-11-21T07:09:50.660Z,30.18
2022-11-21T07:12:44.122Z,30.18
2022-11-21T07:15:14.789Z,30.19
2022-11-21T07:17:45.167Z,30.20
2022-11-21T07:20:15.829Z,30.21
2022-11-21T07:22:46.121Z,30.22
2022-11-21T07:25:16.449Z,30.21
2022-11-21T07:27:46.555Z,30.22
2022-11-21T07:30:17.136Z,30.21
2022-11-21T07:32:47.359Z,30.21
2022-11-21T07:35:17.661Z,30.22
2022-11-21T07:37:47.991Z,30.21
2022-11-21T07:40:18.333Z,30.24
2022-11-21T07:42:50.076Z,30.23
2022-11-21T07:45:20.934Z,30.23
2022-11-21T07:47:59.291Z,30.23
2022-11-21T07:50:30.547Z,30.24
2022-11-21T07:53:03.960Z,30.25
2022-11-21T07:55:39.211Z,30.26
2022-11-21T07:58:14.007Z,30.25
2022-11-21T08:00:45.047Z,30.27
2022-11-21T08:03:16.369Z,30.25
2022-11-21T08:05:47.111Z,30.28
2022-11-21T08:08:17.895Z,30.27
2022-11-21T08:10:49.299Z,30.27
2022-11-21T08:13:19.192Z,30.28
2022-11-21T08:15:49.357Z,30.30
2022-11-21T08:18:23.793Z,30.32
2022-11-21T08:20:54.102Z,30.30
2022-11-21T08:23:24.476Z,30.32
2022-11-21T08:25:54.676Z,30.33
2022-11-21T08:28:24.804Z,30.32
2022-11-21T08:30:55.017Z,30.34
2022-11-21T08:33:25.447Z,30.34
2022-11-21T08:35:55.800Z,30.35
2022-11-21T08:38:26.192Z,30.35
2022-11-21T08:41:17.788Z,30.34
2022-11-21T08:43:57.742Z,30.34
2022-11-21T08:46:33.501Z,30.33
2022-11-21T08:49:03.878Z,30.33
2022-11-21T08:51:34.238Z,30.33
2022-11-21T08:54:06.236Z,30.33
2022-11-21T08:56:36.845Z,30.34
2022-11-21T08:59:07.152Z,30.34
2022-11-21T09:01:37.252Z,30.35
2022-11-21T09:04:08.092Z,30.33
2022-11-21T09:06:39.153Z,30.33
2022-11-21T09:09:10.056Z,30.35
2022-11-21T09:11:40.355Z,30.35
2022-11-21T09:14:29.305Z,30.35
2022-11-21T09:17:17.994Z,30.35
2022-11-21T09:19:48.291Z,30.36
2022-11-21T09:22:18.733Z,30.36
2022-11-21T09:24:49.258Z,30.36
2022-11-21T09:27:19.616Z,30.34
2022-11-21T09:29:54.115Z,30.34
2022-11-21T09:32:25.045Z,30.34
2022-11-21T09:34:55.415Z,30.36
2022-11-21T09:37:25.856Z,30.31
2022-11-21T09:39:56.139Z,30.34
2022-11-21T09:42:41.998Z,30.34
2022-11-21T09:45:22.046Z,30.33
2022-11-21T09:47:54.799Z,30.35
2022-11-21T09:50:39.108Z,30.35
2022-11-21T09:53:14.471Z,30.34
2022-11-21T09:55:49.066Z,30.36
2022-11-21T09:58:35.069Z,30.36
2022-11-21T10:01:05.677Z,30.36
2022-11-21T10:03:48.200Z,30.37
2022-11-21T10:06:29.180Z,30.39
2022-11-21T10:09:43.715Z,30.35
2022-11-21T10:12:42.499Z,30.36
2022-11-21T10:15:36.780Z,30.35
2022-11-21T10:18:44.388Z,30.36
2022-11-21T10:21:24.688Z,30.35
2022-11-21T10:24:42.967Z,30.34
2022-11-21T10:27:22.920Z,30.35
2022-11-21T10:30:00.487Z,30.35
2022-11-21T10:32:40.062Z,30.33
2022-11-21T10:38:26.299Z,30.35
2022-11-21T10:41:25.834Z,30.37
2022-11-21T10:44:41.229Z,30.35
2022-11-21T10:47:32.406Z,30.36
2022-11-21T10:50:11.525Z,30.35
2022-11-21T10:52:53.449Z,30.36
2022-11-21T10:55:23.799Z,30.34
2022-11-21T10:57:56.559Z,30.35
2022-11-21T11:00:29.231Z,30.36
2022-11-21T11:02:59.696Z,30.34
2022-11-21T11:05:32.540Z,30.35
2022-11-21T11:08:04.555Z,30.35
2022-11-21T11:10:42.439Z,30.35
2022-11-21T11:13:52.140Z,30.37
2022-11-21T11:16:24.515Z,30.34
2022-11-21T11:19:29.843Z,30.37
2022-11-21T11:22:03.194Z,30.33
2022-11-21T11:24:33.548Z,30.35
2022-11-21T11:27:05.624Z,30.35
2022-11-21T11:29:37.875Z,30.35
2022-11-21T11:32:23.715Z,30.37
2022-11-21T11:35:02.436Z,30.37
2022-11-21T11:37:40.126Z,30.38
2022-11-21T11:40:26.060Z,30.36
2022-11-21T11:43:26.382Z,30.36
2022-11-21T11:46:51.729Z,30.37
2022-11-21T11:49:58.134Z,30.35
2022-11-21T11:52:37.100Z,30.36
2022-11-21T11:55:11.975Z,30.35
2022-11-21T11:57:44.089Z,30.35
2022-11-21T12:00:25.756Z,30.34
2022-11-21T12:03:23.946Z,30.36
2022-11-21T12:06:13.587Z,30.37
2022-11-21T12:08:58.746Z,30.39
2022-11-21T12:11:51.739Z,30.38
2022-11-21T12:15:17.570Z,30.38
2022-11-21T12:17:50.403Z,30.37
2022-11-21T12:20:33.202Z,30.39
2022-11-21T12:23:03.705Z,30.39
2022-11-21T12:25:39.450Z,30.40
2022-11-21T12:28:22.295Z,30.37
2022-11-21T12:31:07.499Z,30.37
2022-11-21T12:33:48.352Z,30.38
2022-11-21T12:36:23.152Z,30.37
2022-11-21T12:39:05.611Z,30.38
2022-11-21T12:42:09.506Z,30.41
2022-11-21T12:44:57.456Z,30.38
2022-11-21T12:48:03.621Z,30.38
2022-11-21T12:51:08.635Z,30.37
2022-11-21T12:54:40.897Z,30.40
2022-11-21T12:57:14.278Z,30.41
2022-11-21T12:59:53.513Z,30.43
2022-11-21T13:02:44.576Z,30.42
2022-11-21T13:05:22.298Z,30.41
2022-11-21T13:07:58.114Z,30.40
2022-11-21T13:10:29.933Z,30.42
2022-11-21T13:13:25.146Z,30.40
2022-11-21T13:16:18.169Z,30.41
2022-11-21T13:18:52.243Z,30.41
2022-11-21T13:21:44.173Z,30.40
2022-11-21T13:24:34.306Z,30.40
2022-11-21T13:27:04.615Z,30.41
2022-11-21T13:29:35.084Z,30.40
2022-11-21T13:32:44.084Z,30.40
2022-11-21T13:35:23.423Z,30.41
2022-11-21T13:40:33.882Z,30.49
2022-11-21T13:43:35.205Z,30.75
2022-11-21T13:46:05.668Z,30.75
2022-11-21T13:48:57.555Z,30.76
2022-11-21T13:51:41.295Z,30.76
2022-11-21T13:54:26.872Z,30.71
2022-11-21T13:57:06.275Z,30.84
2022-11-21T13:59:51.962Z,30.79
2022-11-21T14:02:48.035Z,30.79
2022-11-21T14:05:24.542Z,30.74
2022-11-21T14:07:55.100Z,30.73
2022-11-21T14:10:37.397Z,30.77
2022-11-21T14:13:07.857Z,30.78
2022-11-21T14:15:50.572Z,30.79
2022-11-21T14:18:27.271Z,30.86
2022-11-21T14:21:03.017Z,30.85
2022-11-21T14:23:37.110Z,30.84
2022-11-21T14:26:15.117Z,30.81
2022-11-21T14:28:45.731Z,30.83
2022-11-21T14:31:19.603Z,30.76
2022-11-21T14:33:51.561Z,30.81
2022-11-21T14:36:34.140Z,30.82
2022-11-21T14:39:35.899Z,30.84
2022-11-21T14:42:07.722Z,30.83
2022-11-21T14:44:38.048Z,30.78
2022-11-21T14:47:26.317Z,30.81
2022-11-21T14:50:03.886Z,30.83
2022-11-21T14:52:38.037Z,30.78
2022-11-21T14:58:03.849Z,30.81
2022-11-21T15:00:58.757Z,30.81
2022-11-21T15:03:26.220Z,30.75
2022-11-21T15:06:07.444Z,30.83
2022-11-21T15:11:43.798Z,30.89
2022-11-21T15:14:44.844Z,30.90
2022-11-21T15:17:21.270Z,30.86
2022-11-21T15:20:14.756Z,30.82
2022-11-21T15:22:45.348Z,30.86
2022-11-21T15:25:22.947Z,30.87
2022-11-21T15:27:55.709Z,30.89
2022-11-21T15:30:32.274Z,30.85
2022-11-21T15:33:10.204Z,30.86
2022-11-21T15:35:59.710Z,30.87
2022-11-21T15:38:36.514Z,30.83
2022-11-21T15:41:12.791Z,30.67
2022-11-21T15:43:44.519Z,30.58
2022-11-21T15:46:26.975Z,30.53
2022-11-21T15:49:25.106Z,30.52
2022-11-21T15:52:09.913Z,30.50
2022-11-21T15:54:40.905Z,30.49
2022-11-21T15:57:17.305Z,30.49
2022-11-21T15:59:49.687Z,30.48
2022-11-21T16:02:20.456Z,30.49
2022-11-21T16:04:50.820Z,30.49
2022-11-21T16:07:21.309Z,30.49
2022-11-21T16:09:52.382Z,30.50
2022-11-21T16:12:22.877Z,30.48
2022-11-21T16:14:53.415Z,30.52
2022-11-21T16:17:23.839Z,30.48
2022-11-21T16:19:54.246Z,30.48
2022-11-21T16:22:24.662Z,30.48
2022-11-21T16:24:55.376Z,30.48
2022-11-21T16:27:28.521Z,30.44
2022-11-21T16:29:58.811Z,30.47
2022-11-21T16:32:29.368Z,30.46
2022-11-21T16:35:00.755Z,30.47
2022-11-21T16:37:33.688Z,30.47
2022-11-21T16:40:04.173Z,30.46
2022-11-21T16:42:34.620Z,30.45
2022-11-21T16:45:05.046Z,30.45
2022-11-21T16:47:37.962Z,30.47
2022-11-21T16:50:08.891Z,30.44
2022-11-21T16:52:39.483Z,30.44
2022-11-21T16:55:10.166Z,30.44
2022-11-21T16:57:40.740Z,30.43
2022-11-21T17:00:14.297Z,30.41
2022-11-21T17:02:45.066Z,30.40
2022-11-21T17:05:15.651Z,30.40
2022-11-21T17:07:47.316Z,30.37
2022-11-21T17:10:18.663Z,30.36
2022-11-21T17:12:49.165Z,30.35
2022-11-21T17:15:19.676Z,30.34
2022-11-21T17:17:50.293Z,30.35
2022-11-21T17:20:20.512Z,30.36
2022-11-21T17:22:50.961Z,30.36
2022-11-21T17:25:21.471Z,30.35
2022-11-21T17:27:51.935Z,30.35
2022-11-21T17:30:23.722Z,30.35
2022-11-21T17:32:54.417Z,30.35
2022-11-21T17:35:24.694Z,30.35
2022-11-21T17:37:55.084Z,30.35
2022-11-21T17:40:25.504Z,30.34
2022-11-21T17:42:55.883Z,30.35
2022-11-21T17:45:27.577Z,30.34
2022-11-21T17:47:58.050Z,30.33
2022-11-21T17:50:28.389Z,30.32
2022-11-21T17:53:00.039Z,30.33
2022-11-21T17:55:30.502Z,30.32
2022-11-21T17:58:00.792Z,30.33
2022-11-21T18:00:31.417Z,30.32
2022-11-21T18:03:01.871Z,30.31
2022-11-21T18:05:32.142Z,30.31
2022-11-21T18:08:02.484Z,30.32
2022-11-21T18:10:47.687Z,30.32
2022-11-21T18:13:18.059Z,30.32
2022-11-21T18:15:48.492Z,30.33
2022-11-21T18:18:18.760Z,30.32
2022-11-21T18:20:49.557Z,30.32
2022-11-21T18:23:20.133Z,30.32
2022-11-21T18:25:50.415Z,30.30
2022-11-21T18:28:20.795Z,30.30
2022-11-21T18:30:51.032Z,30.32
2022-11-21T18:33:21.280Z,30.30
2022-11-21T18:35:51.575Z,30.29
2022-11-21T18:38:46.885Z,30.31
2022-11-21T18:41:18.368Z,30.29
2022-11-21T18:43:55.409Z,30.30
2022-11-21T18:46:29.030Z,30.30
2022-11-21T18:49:04.802Z,30.30
2022-11-21T18:51:36.894Z,30.31
2022-11-21T18:54:09.985Z,30.31
2022-11-21T18:56:41.986Z,30.29
2022-11-21T18:59:12.533Z,30.30
2022-11-21T19:01:42.982Z,30.31
2022-11-21T19:04:13.207Z,30.31
2022-11-21T19:06:43.620Z,30.28
2022-11-21T19:09:13.970Z,30.29
2022-11-21T19:11:44.411Z,30.29
2022-11-21T19:14:14.850Z,30.30
2022-11-21T19:16:45.062Z,30.30
2022-11-21T19:19:34.538Z,30.28
2022-11-21T19:22:07.747Z,30.29
2022-11-21T19:24:38.044Z,30.28
2022-11-21T19:27:09.211Z,30.30
2022-11-21T19:29:39.587Z,30.30
2022-11-21T19:32:09.612Z,30.29
2022-11-21T19:34:40.223Z,30.28
2022-11-21T19:37:10.560Z,30.29
2022-11-21T19:39:40.887Z,30.27
2022-11-21T19:42:11.184Z,30.31
2022-11-21T19:44:41.479Z,30.32
2022-11-21T19:47:12.942Z,30.29
2022-11-21T19:49:43.222Z,30.28
2022-11-21T19:52:13.468Z,30.29
2022-11-21T19:54:44.595Z,30.30
2022-11-21T19:57:15.262Z,30.28
2022-11-21T19:59:47.019Z,30.27
2022-11-21T20:02:23.487Z,30.25
2022-11-21T20:04:53.875Z,30.28
2022-11-21T20:07:24.629Z,30.25
2022-11-21T20:09:55.043Z,30.25
2022-11-21T20:12:25.350Z,30.26
2022-11-21T20:14:55.888Z,30.26
2022-11-21T20:17:26.288Z,30.24
2022-11-21T20:19:56.579Z,30.26
2022-11-21T20:22:26.947Z,30.26
2022-11-21T20:24:57.304Z,30.26
2022-11-21T20:27:27.963Z,30.22
2022-11-21T20:29:58.262Z,30.25
2022-11-21T20:32:30.539Z,30.26
2022-11-21T20:35:00.932Z,30.26
2022-11-21T20:37:31.910Z,30.24
2022-11-21T20:40:02.108Z,30.24
2022-11-21T20:42:32.414Z,30.25
2022-11-21T20:47:52.875Z,30.25
2022-11-21T20:51:03.449Z,30.23
2022-11-21T20:56:12.437Z,30.21
2022-11-21T20:58:44.953Z,30.22
2022-11-21T21:01:17.659Z,30.21
2022-11-21T21:03:48.257Z,30.22
2022-11-21T21:06:19.264Z,30.21
2022-11-21T21:08:53.815Z,30.23
2022-11-21T21:11:50.375Z,30.20
2022-11-21T21:14:16.776Z,30.22
2022-11-21T21:16:47.262Z,30.22
2022-11-21T21:19:17.958Z,30.22
2022-11-21T21:21:48.352Z,30.21
2022-11-21T21:24:19.546Z,30.21
2022-11-21T21:26:51.391Z,30.21
2022-11-21T21:29:23.743Z,30.21
2022-11-21T21:31:54.110Z,30.20
2022-11-21T21:34:25.544Z,30.22
2022-11-21T21:36:55.348Z,30.19
2022-11-21T21:39:25.450Z,30.21
2022-11-21T21:41:56.052Z,30.17
2022-11-21T21:44:32.780Z,30.20
2022-11-21T21:47:04.333Z,30.19
2022-11-21T21:49:34.671Z,30.20
2022-11-21T21:52:05.417Z,30.20
2022-11-21T21:54:36.192Z,30.19
2022-11-21T21:57:06.625Z,30.20
2022-11-21T21:59:36.755Z,30.19
2022-11-21T22:02:07.166Z,30.20
2022-11-21T22:04:37.497Z,30.21
2022-11-21T22:07:07.909Z,30.23
2022-11-21T22:09:38.441Z,30.22
2022-11-21T22:12:08.771Z,30.19
2022-11-21T22:14:38.953Z,30.18
2022-11-21T22:17:09.077Z,30.17
2022-11-21T22:19:39.242Z,30.20
2022-11-21T22:22:09.294Z,30.19
2022-11-21T22:24:41.434Z,30.21
2022-11-21T22:27:11.821Z,30.19
2022-11-21T22:29:41.899Z,30.19
2022-11-21T22:34:47.348Z,30.25
2022-11-21T22:37:17.604Z,30.22
2022-11-21T22:39:48.079Z,30.20
2022-11-21T22:42:18.420Z,30.20
2022-11-21T22:44:49.114Z,30.21
2022-11-21T22:47:19.696Z,30.21
2022-11-21T22:49:50.054Z,30.20
2022-11-21T22:52:20.532Z,30.26
2022-11-21T22:54:50.803Z,30.22
2022-11-21T22:57:21.430Z,30.18
2022-11-21T22:59:52.015Z,30.17
2022-11-21T23:02:34.261Z,30.12
2022-11-21T23:05:06.345Z,30.12
2022-11-21T23:07:37.980Z,30.12
2022-11-21T23:10:09.010Z,30.10
2022-11-21T23:12:39.610Z,30.11
2022-11-21T23:15:10.489Z,30.08
2022-11-21T23:17:40.744Z,30.10
2022-11-21T23:20:11.781Z,30.10
2022-11-21T23:22:42.005Z,30.11
2022-11-21T23:25:12.507Z,30.11
2022-11-21T23:27:42.571Z,30.10
2022-11-21T23:30:13.701Z,30.10
2022-11-21T23:32:43.760Z,30.10
2022-11-21T23:35:14.079Z,30.09
2022-11-21T23:37:44.221Z,30.10
2022-11-21T23:40:15.018Z,30.08
2022-11-21T23:42:46.497Z,30.07
2022-11-21T23:45:17.075Z,30.07
2022-11-21T23:47:47.409Z,30.06
2022-11-21T23:50:18.963Z,30.06
2022-11-21T23:52:50.361Z,30.03
2022-11-21T23:55:21.536Z,30.05
2022-11-21T23:57:52.545Z,30.06
